createdAt,value
2023-03-23T15:58:24.816Z,2.00
2023-03-23T16:00:53.714Z,2.23
2023-03-23T16:03:27.759Z,1.87
2023-03-23T16:05:56.059Z,1.37
2023-03-23T16:08:24.284Z,1.60
2023-03-23T16:10:52.422Z,2.17
2023-03-23T16:13:20.776Z,1.50
2023-03-23T16:15:49.340Z,1.80
2023-03-23T16:18:19.366Z,1.90
2023-03-23T16:20:49.270Z,1.80
2023-03-23T16:23:17.155Z,2.50
2023-03-23T16:25:45.500Z,2.30
2023-03-23T16:28:14.447Z,2.10
2023-03-23T16:30:43.509Z,1.80
2023-03-23T16:33:14.530Z,1.40
2023-03-23T16:35:43.627Z,2.17
2023-03-23T16:38:13.925Z,1.87
2023-03-23T16:40:42.572Z,1.23
2023-03-23T16:43:10.973Z,1.80
2023-03-23T16:45:40.501Z,1.57
2023-03-23T16:48:10.032Z,1.70
2023-03-23T16:50:38.717Z,1.50
2023-03-23T16:53:08.335Z,1.30
2023-03-23T16:55:38.387Z,1.50
2023-03-23T16:58:16.468Z,1.20
2023-03-23T17:00:46.891Z,1.40
2023-03-23T17:03:16.862Z,1.53
2023-03-23T17:05:45.619Z,1.40
2023-03-23T17:08:14.024Z,1.70
2023-03-23T17:10:43.784Z,1.30
2023-03-23T17:13:11.862Z,1.20
2023-03-23T17:15:40.130Z,1.40
2023-03-23T17:18:08.635Z,1.60
2023-03-23T17:20:37.039Z,1.47
2023-03-23T17:23:05.791Z,1.50
2023-03-23T17:25:34.009Z,1.30
2023-03-23T17:28:06.041Z,1.60
2023-03-23T17:30:35.094Z,1.33
2023-03-23T17:33:03.022Z,2.00
2023-03-23T17:35:31.221Z,2.40
2023-03-23T17:37:59.651Z,1.57
2023-03-23T17:40:27.880Z,1.30
2023-03-23T17:42:56.417Z,1.37
2023-03-23T17:45:30.460Z,1.50
2023-03-23T17:47:58.480Z,1.73
2023-03-23T17:50:26.462Z,1.30
2023-03-23T17:52:57.114Z,1.30
2023-03-23T17:55:25.597Z,1.40
2023-03-23T17:57:53.555Z,1.90
2023-03-23T18:00:22.300Z,1.57
2023-03-23T18:02:51.813Z,1.67
2023-03-23T18:05:20.042Z,1.30
2023-03-23T18:07:48.079Z,1.83
2023-03-23T18:10:16.138Z,3.20
2023-03-23T18:12:44.094Z,1.43
2023-03-23T18:15:13.335Z,2.00
2023-03-23T18:17:42.365Z,1.70
2023-03-23T18:20:11.988Z,1.70
2023-03-23T18:22:39.937Z,1.87
2023-03-23T18:25:08.026Z,2.53
2023-03-23T18:27:36.002Z,2.67
2023-03-23T18:30:04.026Z,2.67
2023-03-23T18:32:32.020Z,3.00
2023-03-23T18:34:59.922Z,3.07
2023-03-23T18:37:29.914Z,4.03
2023-03-23T18:39:57.778Z,4.83
2023-03-23T18:42:26.833Z,5.13
2023-03-23T18:44:55.140Z,4.77
2023-03-23T18:47:23.529Z,6.23
2023-03-23T18:49:55.242Z,5.00
2023-03-23T18:52:26.085Z,5.13
2023-03-23T18:54:55.394Z,4.00
2023-03-23T18:57:23.686Z,2.93
2023-03-23T18:59:51.853Z,4.77
2023-03-23T19:02:20.116Z,4.70
2023-03-23T19:04:48.051Z,4.60
2023-03-23T19:07:16.638Z,6.07
2023-03-23T19:09:46.154Z,4.10
2023-03-23T19:12:16.496Z,4.20
2023-03-23T19:14:44.831Z,3.93
2023-03-23T19:17:12.711Z,4.07
2023-03-23T19:19:43.031Z,3.90
2023-03-23T19:22:11.693Z,4.10
2023-03-23T19:24:39.606Z,3.90
2023-03-23T19:27:08.358Z,4.30
2023-03-23T19:29:37.925Z,4.50
2023-03-23T19:32:06.523Z,4.40
2023-03-23T19:34:34.683Z,4.33
2023-03-23T19:37:06.061Z,4.03
2023-03-23T19:39:38.553Z,3.60
2023-03-23T19:42:07.109Z,4.80
2023-03-23T19:44:35.278Z,3.87
2023-03-23T19:47:04.619Z,4.80
2023-03-23T19:49:32.817Z,5.27
2023-03-23T19:52:09.021Z,5.67
2023-03-23T19:54:38.519Z,6.43
2023-03-23T19:57:06.384Z,5.60
2023-03-23T19:59:34.808Z,6.87
2023-03-23T20:02:04.229Z,6.17
2023-03-23T20:04:32.288Z,5.97
2023-03-23T20:07:00.577Z,4.50
2023-03-23T20:09:28.703Z,5.97
2023-03-23T20:11:57.504Z,5.23
2023-03-23T20:14:26.545Z,3.67
2023-03-23T20:16:54.987Z,3.97
2023-03-23T20:19:24.541Z,3.87
2023-03-23T20:21:52.982Z,4.03
2023-03-23T20:24:21.205Z,4.23
2023-03-23T20:26:49.774Z,5.00
2023-03-23T20:29:17.655Z,3.93
2023-03-23T20:31:46.585Z,3.67
2023-03-23T20:34:17.217Z,4.63
2023-03-23T20:36:49.023Z,4.37
2023-03-23T20:39:21.409Z,5.03
2023-03-23T20:41:50.444Z,4.40
2023-03-23T20:44:20.031Z,3.87
2023-03-23T20:46:48.905Z,5.63
2023-03-23T20:49:17.910Z,5.20
2023-03-23T20:51:47.541Z,4.13
2023-03-23T20:54:15.866Z,4.77
2023-03-23T20:56:43.940Z,4.70
2023-03-23T20:59:12.069Z,5.27
2023-03-23T21:01:40.458Z,3.60
2023-03-23T21:04:15.683Z,5.57
2023-03-23T21:06:43.716Z,4.27
2023-03-23T21:09:13.734Z,4.77
2023-03-23T21:11:42.115Z,4.23
2023-03-23T21:14:10.269Z,4.53
2023-03-23T21:16:38.601Z,3.60
2023-03-23T21:19:07.472Z,6.23
2023-03-23T21:21:35.988Z,4.73
2023-03-23T21:24:04.117Z,5.27
2023-03-23T21:26:34.035Z,4.87
2023-03-23T21:29:02.043Z,4.53
2023-03-23T21:31:31.686Z,4.00
2023-03-23T21:33:59.904Z,4.77
2023-03-23T21:36:28.162Z,3.97
2023-03-23T21:38:56.854Z,3.93
2023-03-23T21:41:25.020Z,4.90
2023-03-23T21:43:54.761Z,4.93
2023-03-23T21:46:22.820Z,5.57
2023-03-23T21:48:51.925Z,5.67
2023-03-23T21:51:21.568Z,5.47
2023-03-23T21:53:50.319Z,5.20
2023-03-23T21:56:18.449Z,4.77
2023-03-23T21:58:46.329Z,5.43
2023-03-23T22:01:16.306Z,5.03
2023-03-23T22:03:44.368Z,4.23
2023-03-23T22:06:14.315Z,5.47
2023-03-23T22:08:43.245Z,4.33
2023-03-23T22:11:12.772Z,4.63
2023-03-23T22:13:40.747Z,3.70
2023-03-23T22:16:10.038Z,4.53
2023-03-23T22:18:39.360Z,3.70
2023-03-23T22:21:07.794Z,4.17
2023-03-23T22:23:36.077Z,4.13
2023-03-23T22:26:04.392Z,3.70
2023-03-23T22:28:32.661Z,4.70
2023-03-23T22:31:06.257Z,5.00
2023-03-23T22:33:34.627Z,4.50
2023-03-23T22:36:06.699Z,4.27
2023-03-23T22:38:34.807Z,3.70
2023-03-23T22:41:04.649Z,3.37
2023-03-23T22:43:32.827Z,4.10
2023-03-23T22:46:01.060Z,3.63
2023-03-23T22:48:29.365Z,5.20
2023-03-23T22:50:58.477Z,4.17
2023-03-23T22:53:27.738Z,3.83
2023-03-23T22:55:56.916Z,3.60
2023-03-23T22:58:24.971Z,4.23
2023-03-23T23:00:56.999Z,4.43
2023-03-23T23:03:25.025Z,3.47
2023-03-23T23:05:53.140Z,3.80
2023-03-23T23:08:21.235Z,3.33
2023-03-23T23:10:51.698Z,3.73
2023-03-23T23:13:19.889Z,3.73
2023-03-23T23:15:49.028Z,3.80
2023-03-23T23:18:17.100Z,4.10
2023-03-23T23:20:45.385Z,4.20
2023-03-23T23:23:13.381Z,4.07
2023-03-23T23:25:41.660Z,4.80
2023-03-23T23:28:10.957Z,5.43
2023-03-23T23:30:38.893Z,4.20
2023-03-23T23:33:07.480Z,4.23
2023-03-23T23:35:37.024Z,4.33
2023-03-23T23:38:04.973Z,3.53
2023-03-23T23:40:33.057Z,3.67
2023-03-23T23:43:00.938Z,5.10
2023-03-23T23:45:30.246Z,4.20
2023-03-23T23:47:58.441Z,4.70
2023-03-23T23:50:26.516Z,4.80
2023-03-23T23:52:54.499Z,4.07
2023-03-23T23:55:22.606Z,5.00
2023-03-23T23:57:50.540Z,3.50
